Time;durP1;ratioP1;P1;durP2;ratioP2;P2;SDS_P1;SDS_P2;PMS_P1;PMS_P2;Temp;Humidity;BMP_temperature;BMP_pressure;BME280_temperature;BME280_humidity;BME280_pressure;Samples;Min_cycle;Max_cycle;Signal;HPM_P1;HPM_P2
2024/02/03 00:00:20;;;;;;;28.97;18.60;;;9.70;98.00;;;;;;5092474;28;20395;-76
2024/02/03 00:02:45;;;;;;;29.87;19.33;;;9.70;98.10;;;;;;5093462;28;20482;-76
2024/02/03 00:05:11;;;;;;;28.10;18.53;;;9.70;97.50;;;;;;5094211;28;20463;-76
2024/02/03 00:07:36;;;;;;;27.40;18.40;;;9.60;98.50;;;;;;5094576;28;20409;-76
2024/02/03 00:10:02;;;;;;;26.40;17.00;;;9.60;99.00;;;;;;5096172;28;20616;-76
2024/02/03 00:12:28;;;;;;;29.15;18.27;;;9.70;97.60;;;;;;5096133;28;20410;-77
2024/02/03 00:14:55;;;;;;;31.00;18.48;;;9.70;98.20;;;;;;5095977;28;20379;-76
2024/02/03 00:17:21;;;;;;;26.60;16.45;;;9.70;98.10;;;;;;5095949;28;20414;-76
2024/02/03 00:19:46;;;;;;;28.15;17.25;;;9.80;98.00;;;;;;5095666;28;20452;-76
2024/02/03 00:22:12;;;;;;;22.55;16.23;;;9.70;98.00;;;;;;5096161;28;20449;-76
2024/02/03 00:24:38;;;;;;;25.45;15.75;;;9.70;97.50;;;;;;5096549;28;20382;-76
2024/02/03 00:27:05;;;;;;;26.55;16.58;;;9.70;97.70;;;;;;5096364;28;20387;-76
2024/02/03 00:29:30;;;;;;;26.10;17.52;;;9.60;98.60;;;;;;5078740;28;20384;-77
2024/02/03 00:31:56;;;;;;;25.27;15.75;;;9.70;99.60;;;;;;5078479;28;20429;-75
2024/02/03 00:34:22;;;;;;;24.83;16.77;;;9.70;99.30;;;;;;5095103;28;20406;-76
2024/02/03 00:36:47;;;;;;;23.80;16.00;;;9.80;97.70;;;;;;5095044;28;20438;-77
2024/02/03 00:39:13;;;;;;;22.60;15.82;;;9.70;97.70;;;;;;5095335;28;20417;-76
2024/02/03 00:41:38;;;;;;;22.33;16.63;;;9.70;98.40;;;;;;5095501;28;20419;-76
2024/02/03 00:44:04;;;;;;;26.23;16.90;;;9.70;98.70;;;;;;5094652;28;20404;-78
2024/02/03 00:46:29;;;;;;;26.63;16.03;;;9.70;98.70;;;;;;5058307;28;20866;-77
2024/02/03 00:48:55;;;;;;;24.80;16.93;;;9.80;97.90;;;;;;5074413;28;20394;-75
2024/02/03 00:51:21;;;;;;;23.03;16.07;;;9.70;98.50;;;;;;5074091;28;20430;-77
2024/02/03 00:53:46;;;;;;;22.90;15.90;;;9.70;99.00;;;;;;5072329;28;20395;-75
2024/02/03 00:56:12;;;;;;;23.88;16.05;;;9.70;99.10;;;;;;5055782;28;20371;-77
2024/02/03 00:58:37;;;;;;;23.95;15.55;;;9.70;99.10;;;;;;5074272;28;20750;-76
2024/02/03 01:01:03;;;;;;;22.25;15.85;;;9.70;99.30;;;;;;5072818;28;20564;-76
2024/02/03 01:03:29;;;;;;;22.95;15.30;;;9.70;99.60;;;;;;5072816;28;20388;-75
2024/02/03 01:05:55;;;;;;;23.63;15.88;;;9.70;98.70;;;;;;5071415;28;20384;-77
2024/02/03 01:08:20;;;;;;;24.30;16.52;;;9.60;99.50;;;;;;5073137;28;20418;-75
2024/02/03 01:10:46;;;;;;;23.65;15.57;;;9.70;99.30;;;;;;5073910;28;20383;-76
2024/02/03 01:13:12;;;;;;;23.10;15.48;;;9.60;99.60;;;;;;5075861;28;20411;-76
2024/02/03 01:15:37;;;;;;;20.25;14.70;;;9.60;99.90;;;;;;5076953;28;20380;-77
2024/02/03 01:18:03;;;;;;;21.15;15.50;;;9.60;99.60;;;;;;5077821;28;20384;-75
2024/02/03 01:20:29;;;;;;;24.02;15.30;;;9.60;99.90;;;;;;5085028;28;20383;-74
2024/02/03 01:22:55;;;;;;;22.85;15.55;;;9.70;99.80;;;;;;5081177;28;20435;-75
2024/02/03 01:25:20;;;;;;;22.20;15.00;;;9.70;99.40;;;;;;5079188;28;20481;-77
2024/02/03 01:27:46;;;;;;;19.67;13.73;;;9.70;99.20;;;;;;5077782;28;20375;-76
2024/02/03 01:30:12;;;;;;;21.02;15.05;;;9.70;98.40;;;;;;5081109;28;20462;-76
2024/02/03 01:32:37;;;;;;;27.85;14.82;;;9.70;98.40;;;;;;5077775;28;20384;-77
2024/02/03 01:35:04;;;;;;;21.20;15.40;;;9.80;98.20;;;;;;5077841;28;20438;-76
2024/02/03 01:37:30;;;;;;;22.33;14.43;;;9.80;97.80;;;;;;5078095;28;20956;-77
2024/02/03 01:39:55;;;;;;;20.40;14.43;;;9.80;97.80;;;;;;5077467;28;20392;-76
2024/02/03 01:42:22;;;;;;;22.20;14.70;;;9.80;98.10;;;;;;5075358;28;20442;-76
2024/02/03 01:44:47;;;;;;;21.10;14.60;;;9.80;97.70;;;;;;5059268;28;20384;-76
2024/02/03 01:47:13;;;;;;;21.03;13.50;;;9.70;97.90;;;;;;5078374;28;20383;-76
2024/02/03 01:49:39;;;;;;;22.08;14.23;;;9.70;98.10;;;;;;5075852;28;20508;-76
2024/02/03 01:52:05;;;;;;;18.42;13.35;;;9.80;98.30;;;;;;5074192;28;20388;-77
2024/02/03 01:54:32;;;;;;;18.33;13.32;;;9.80;98.50;;;;;;5076744;28;20394;-79
2024/02/03 01:56:59;;;;;;;20.67;14.55;;;9.70;98.40;;;;;;5059797;28;20454;-73
2024/02/03 01:59:29;;;;;;;20.20;14.40;;;9.80;98.20;;;;;;5075954;28;20393;-72
2024/02/03 02:02:01;;;;;;;22.27;14.00;;;9.80;99.40;;;;;;5075011;28;20468;-76
2024/02/03 02:04:30;;;;;;;21.55;13.85;;;9.70;98.80;;;;;;5074745;28;20528;-77
2024/02/03 02:06:57;;;;;;;23.80;14.38;;;9.80;98.50;;;;;;5075218;28;20885;-77
2024/02/03 02:09:24;;;;;;;19.48;13.60;;;9.70;98.40;;;;;;5075940;28;20411;-76
2024/02/03 02:11:57;;;;;;;23.45;14.75;;;9.70;99.00;;;;;;5078072;28;20858;-77
2024/02/03 02:14:24;;;;;;;20.60;13.90;;;9.80;98.50;;;;;;5080412;28;20423;-78
2024/02/03 02:16:50;;;;;;;19.73;13.93;;;9.80;98.10;;;;;;5078199;28;20410;-77
2024/02/03 02:19:16;;;;;;;20.08;13.50;;;9.80;97.20;;;;;;5074764;28;20861;-78
2024/02/03 02:21:42;;;;;;;19.77;13.95;;;9.80;96.70;;;;;;5077911;28;20407;-77
2024/02/03 02:24:08;;;;;;;20.23;13.82;;;9.80;96.80;;;;;;5075582;28;20387;-77
2024/02/03 02:26:34;;;;;;;18.63;13.35;;;9.80;97.40;;;;;;5076182;28;20568;-77
2024/02/03 02:28:59;;;;;;;18.77;12.88;;;9.80;96.90;;;;;;5076076;28;20951;-77
2024/02/03 02:31:25;;;;;;;18.17;13.20;;;9.90;95.60;;;;;;5075875;28;20380;-77
2024/02/03 02:33:51;;;;;;;19.08;12.57;;;9.90;96.40;;;;;;5076483;28;20388;-76
2024/02/03 02:36:17;;;;;;;19.17;12.90;;;9.90;95.00;;;;;;5077470;28;20376;-76
2024/02/03 02:38:42;;;;;;;16.60;12.67;;;9.90;95.10;;;;;;5076459;28;20423;-77
2024/02/03 02:41:11;;;;;;;16.30;12.60;;;9.90;94.50;;;;;;5079135;28;20579;-76
2024/02/03 02:43:37;;;;;;;18.52;13.27;;;9.90;95.00;;;;;;5078377;28;20455;-77
2024/02/03 02:46:02;;;;;;;18.27;12.70;;;9.90;95.10;;;;;;5077906;28;20415;-77
2024/02/03 02:48:28;;;;;;;17.95;12.32;;;9.80;95.00;;;;;;5079131;28;20380;-77
2024/02/03 02:50:54;;;;;;;18.07;12.67;;;9.90;95.10;;;;;;5076451;28;20979;-77
2024/02/03 02:53:19;;;;;;;21.73;13.48;;;9.90;94.70;;;;;;5075146;28;20392;-77
2024/02/03 02:55:45;;;;;;;16.42;12.35;;;9.90;94.20;;;;;;5079213;28;20391;-79
2024/02/03 02:58:11;;;;;;;17.07;13.10;;;9.90;94.00;;;;;;5075983;28;20400;-77
2024/02/03 03:00:36;;;;;;;14.73;11.10;;;9.90;94.10;;;;;;5076513;28;20387;-79
2024/02/03 03:03:02;;;;;;;15.95;12.13;;;10.00;93.20;;;;;;5076849;28;20490;-79
2024/02/03 03:05:28;;;;;;;16.88;12.23;;;9.90;93.90;;;;;;5082645;28;20376;-79
2024/02/03 03:07:53;;;;;;;16.83;11.55;;;10.00;93.00;;;;;;5066695;28;20485;-77
2024/02/03 03:10:19;;;;;;;18.33;12.10;;;9.90;93.60;;;;;;5075501;28;20411;-77
2024/02/03 03:12:44;;;;;;;17.58;12.27;;;9.90;94.80;;;;;;5081441;28;20391;-79
2024/02/03 03:15:10;;;;;;;17.42;12.27;;;9.90;93.50;;;;;;5077760;28;20484;-77
2024/02/03 03:17:35;;;;;;;18.50;12.60;;;9.90;93.50;;;;;;5079778;28;20415;-78
2024/02/03 03:20:01;;;;;;;18.07;12.40;;;9.90;93.70;;;;;;5084406;28;20403;-78
2024/02/03 03:22:27;;;;;;;17.37;12.60;;;10.00;92.90;;;;;;5077989;28;20404;-80
2024/02/03 03:24:53;;;;;;;17.07;12.13;;;10.00;92.90;;;;;;5075934;28;20415;-79
2024/02/03 03:27:18;;;;;;;18.33;12.87;;;9.90;93.10;;;;;;5079278;28;20375;-78
2024/02/03 03:29:46;;;;;;;15.93;12.00;;;10.00;92.80;;;;;;5079608;28;20383;-78
2024/02/03 03:32:12;;;;;;;16.05;12.18;;;10.00;92.40;;;;;;5079015;28;20383;-79
2024/02/03 03:34:37;;;;;;;16.40;12.23;;;10.00;92.30;;;;;;5083624;28;20380;-78
2024/02/03 03:37:03;;;;;;;16.02;12.25;;;10.00;91.10;;;;;;5078803;28;20394;-77
2024/02/03 03:39:29;;;;;;;15.95;11.13;;;10.10;90.50;;;;;;5076699;28;20444;-77
2024/02/03 03:41:54;;;;;;;15.03;11.73;;;10.00;91.00;;;;;;5082710;28;20844;-75
2024/02/03 03:44:20;;;;;;;14.40;11.27;;;10.00;91.50;;;;;;5072088;28;20407;-74
2024/02/03 03:46:46;;;;;;;16.95;11.35;;;10.10;91.50;;;;;;5074340;28;20380;-74
2024/02/03 03:49:12;;;;;;;15.50;11.45;;;10.10;90.80;;;;;;5075001;28;20467;-76
2024/02/03 03:51:38;;;;;;;17.20;11.38;;;10.10;90.90;;;;;;5072348;28;20375;-73
2024/02/03 03:54:04;;;;;;;13.18;10.20;;;10.10;90.00;;;;;;5071391;28;20750;-74
2024/02/03 03:56:29;;;;;;;14.27;10.57;;;10.00;91.10;;;;;;5070945;28;20387;-74
2024/02/03 03:58:55;;;;;;;12.95;10.07;;;10.10;91.00;;;;;;5070945;28;20458;-74
2024/02/03 04:01:21;;;;;;;14.20;10.18;;;10.10;89.50;;;;;;5071144;28;20502;-74
2024/02/03 04:03:46;;;;;;;18.23;10.20;;;10.10;90.00;;;;;;5071217;28;20384;-75
2024/02/03 04:06:12;;;;;;;14.00;9.60;;;10.10;90.30;;;;;;5070943;28;20386;-75
2024/02/03 04:08:37;;;;;;;16.23;10.00;;;10.10;90.30;;;;;;5070642;28;20388;-74
2024/02/03 04:11:03;;;;;;;13.90;10.47;;;10.00;91.50;;;;;;5070888;28;20390;-74
2024/02/03 04:13:29;;;;;;;13.00;9.90;;;10.00;91.90;;;;;;5070118;28;20473;-74
2024/02/03 04:15:54;;;;;;;12.40;9.90;;;10.20;89.50;;;;;;5070670;28;20819;-76
2024/02/03 04:18:20;;;;;;;12.77;9.93;;;10.10;90.20;;;;;;5070711;28;20400;-75
2024/02/03 04:20:45;;;;;;;14.80;10.77;;;10.20;89.30;;;;;;5070881;28;20483;-74
2024/02/03 04:23:11;;;;;;;14.88;10.43;;;10.10;89.80;;;;;;5070608;28;20387;-74
2024/02/03 04:25:37;;;;;;;14.75;10.20;;;10.20;88.90;;;;;;5071214;28;20384;-75
2024/02/03 04:28:02;;;;;;;13.05;10.05;;;10.10;89.80;;;;;;5070787;28;20406;-74
2024/02/03 04:30:28;;;;;;;13.80;10.30;;;10.10;90.40;;;;;;5070699;28;20851;-75
2024/02/03 04:32:54;;;;;;;12.33;9.97;;;10.20;89.90;;;;;;5070429;28;20473;-76
2024/02/03 04:35:19;;;;;;;15.70;10.70;;;10.20;90.50;;;;;;5070686;28;20379;-74
2024/02/03 04:37:45;;;;;;;15.80;11.15;;;10.10;91.40;;;;;;5070849;28;20383;-75
2024/02/03 04:40:11;;;;;;;14.05;10.50;;;10.10;90.70;;;;;;5070838;28;20395;-74
2024/02/03 04:42:36;;;;;;;14.65;10.90;;;10.10;91.10;;;;;;5070068;28;20406;-74
2024/02/03 04:45:02;;;;;;;15.13;11.20;;;10.20;90.80;;;;;;5070433;28;20421;-75
2024/02/03 04:47:27;;;;;;;14.65;10.63;;;10.10;91.30;;;;;;5070808;28;20785;-75
2024/02/03 04:49:53;;;;;;;14.98;11.05;;;10.10;91.10;;;;;;5052704;28;20986;-76
2024/02/03 04:52:18;;;;;;;15.55;11.43;;;10.10;91.50;;;;;;5053017;28;20392;-75
2024/02/03 04:54:44;;;;;;;17.40;12.40;;;10.10;91.80;;;;;;5074883;28;20406;-74
2024/02/03 04:57:09;;;;;;;17.27;12.30;;;10.20;91.80;;;;;;5074642;28;20402;-73
2024/02/03 04:59:35;;;;;;;17.67;12.00;;;10.10;91.70;;;;;;5074628;28;20384;-75
2024/02/03 05:02:01;;;;;;;16.50;11.50;;;10.10;92.40;;;;;;5074310;28;20399;-75
2024/02/03 05:04:27;;;;;;;18.42;12.30;;;10.10;92.80;;;;;;5074578;28;20433;-75
2024/02/03 05:06:52;;;;;;;17.40;12.90;;;10.10;93.10;;;;;;5074172;28;20388;-74
2024/02/03 05:09:19;;;;;;;17.63;12.23;;;10.20;93.20;;;;;;5075028;28;20418;-74
2024/02/03 05:11:44;;;;;;;19.83;13.30;;;10.20;92.50;;;;;;5073726;28;20390;-75
2024/02/03 05:14:10;;;;;;;17.30;12.75;;;10.20;93.10;;;;;;5074204;28;20383;-75
2024/02/03 05:16:35;;;;;;;19.90;13.35;;;10.10;93.20;;;;;;5074461;28;20391;-74
2024/02/03 05:19:03;;;;;;;16.30;12.18;;;10.10;93.00;;;;;;5074290;28;20383;-76
2024/02/03 05:21:30;;;;;;;20.83;13.00;;;10.20;93.00;;;;;;5074109;28;20567;-73
2024/02/03 05:23:55;;;;;;;17.42;12.75;;;10.10;94.80;;;;;;5074471;28;20431;-74
2024/02/03 05:26:21;;;;;;;19.38;13.32;;;10.10;94.00;;;;;;5056448;28;20890;-73
2024/02/03 05:28:46;;;;;;;18.58;12.73;;;10.10;93.90;;;;;;5073599;28;20449;-74
2024/02/03 05:31:20;;;;;;;16.73;12.43;;;10.20;92.60;;;;;;5055968;28;20744;-74
2024/02/03 05:33:45;;;;;;;21.50;13.00;;;10.20;92.00;;;;;;5073855;28;20731;-75
2024/02/03 05:36:11;;;;;;;16.33;12.00;;;10.10;93.10;;;;;;5074386;28;20386;-74
2024/02/03 05:38:36;;;;;;;17.15;12.27;;;10.20;92.80;;;;;;5074555;28;20751;-74
2024/02/03 05:41:02;;;;;;;19.30;12.40;;;10.20;92.50;;;;;;5074292;28;20960;-75
2024/02/03 05:43:27;;;;;;;17.57;12.37;;;10.20;92.60;;;;;;5073743;28;20864;-75
2024/02/03 05:45:53;;;;;;;18.53;11.80;;;10.20;93.10;;;;;;5073856;28;20859;-74
2024/02/03 05:48:18;;;;;;;18.70;11.90;;;10.20;92.50;;;;;;5074193;28;20562;-74
2024/02/03 05:50:44;;;;;;;17.10;11.98;;;10.20;92.30;;;;;;5074408;28;20429;-73
2024/02/03 05:53:09;;;;;;;16.30;12.10;;;10.30;92.40;;;;;;5074774;28;20471;-73
2024/02/03 05:55:35;;;;;;;17.15;12.20;;;10.20;92.80;;;;;;5075507;28;20402;-74
2024/02/03 05:58:01;;;;;;;17.37;10.90;;;10.30;92.50;;;;;;5075964;28;20391;-75
2024/02/03 06:00:27;;;;;;;18.17;12.50;;;10.20;93.00;;;;;;5073505;28;20383;-75
2024/02/03 06:02:52;;;;;;;15.50;11.30;;;10.20;93.00;;;;;;5072871;28;20484;-74
2024/02/03 06:05:18;;;;;;;16.95;12.85;;;10.20;93.10;;;;;;5073395;28;20386;-75
2024/02/03 06:07:43;;;;;;;15.77;11.90;;;10.20;93.90;;;;;;5073554;28;20870;-73
2024/02/03 06:10:09;;;;;;;16.13;12.25;;;10.20;94.60;;;;;;5073533;28;20747;-74
2024/02/03 06:12:35;;;;;;;18.70;12.00;;;10.20;94.40;;;;;;5060482;28;20411;-74
2024/02/03 06:15:00;;;;;;;18.10;12.55;;;10.20;95.00;;;;;;5073025;28;20783;-75
2024/02/03 06:17:26;;;;;;;15.73;11.85;;;10.20;96.10;;;;;;5072770;28;20928;-74
2024/02/03 06:19:53;;;;;;;17.90;12.10;;;10.20;95.90;;;;;;5072928;28;20406;-75
2024/02/03 06:22:18;;;;;;;20.80;12.73;;;10.30;95.80;;;;;;5073065;28;20411;-75
2024/02/03 06:24:44;;;;;;;17.38;12.73;;;10.20;96.60;;;;;;5073194;28;20383;-77
2024/02/03 06:27:09;;;;;;;18.27;12.05;;;10.20;97.40;;;;;;5073215;28;20399;-75
2024/02/03 06:29:35;;;;;;;21.75;12.65;;;10.20;98.20;;;;;;5073270;28;20402;-74
2024/02/03 06:32:01;;;;;;;20.30;13.40;;;10.10;98.90;;;;;;5073883;28;20375;-72
2024/02/03 06:34:26;;;;;;;20.92;13.85;;;10.10;99.30;;;;;;5073280;28;20410;-75
2024/02/03 06:36:52;;;;;;;18.93;12.70;;;10.10;99.00;;;;;;5072856;28;20793;-74
2024/02/03 06:39:17;;;;;;;22.50;13.57;;;10.10;99.50;;;;;;5073088;28;20506;-74
2024/02/03 06:41:43;;;;;;;18.30;13.60;;;10.20;99.20;;;;;;5072789;28;20403;-74
2024/02/03 06:44:10;;;;;;;24.50;14.03;;;10.20;99.10;;;;;;5073475;28;20401;-76
2024/02/03 06:46:36;;;;;;;19.13;13.17;;;10.10;99.30;;;;;;5073091;28;20380;-74
2024/02/03 06:49:01;;;;;;;17.80;13.53;;;10.10;99.90;;;;;;5073238;28;20394;-74
2024/02/03 06:51:27;;;;;;;20.90;13.57;;;10.10;99.90;;;;;;5072398;28;20445;-74
2024/02/03 06:53:53;;;;;;;20.67;13.77;;;10.10;99.90;;;;;;5072560;28;20379;-75
2024/02/03 06:56:19;;;;;;;20.98;13.40;;;10.10;99.90;;;;;;5072276;28;20391;-75
2024/02/03 06:58:44;;;;;;;18.67;13.33;;;10.10;99.90;;;;;;5072613;28;20398;-74
2024/02/03 07:01:10;;;;;;;19.67;13.57;;;10.10;99.90;;;;;;5071765;28;20477;-75
2024/02/03 07:03:35;;;;;;;17.27;12.33;;;10.20;99.90;;;;;;5071814;28;20387;-75
2024/02/03 07:06:01;;;;;;;22.97;14.17;;;10.20;98.80;;;;;;5072564;28;20462;-75
2024/02/03 07:08:26;;;;;;;19.48;13.00;;;10.10;99.10;;;;;;5072331;28;20392;-75
2024/02/03 07:10:52;;;;;;;18.83;13.25;;;10.00;99.90;;;;;;5071966;28;20376;-74
2024/02/03 07:13:17;;;;;;;21.17;14.00;;;10.10;99.50;;;;;;5071575;28;20388;-75
2024/02/03 07:15:43;;;;;;;19.73;12.50;;;10.20;98.80;;;;;;5071146;28;20424;-75
2024/02/03 07:18:09;;;;;;;21.75;12.55;;;10.20;98.20;;;;;;5071691;28;20850;-75
2024/02/03 07:20:34;;;;;;;17.88;12.40;;;10.20;98.40;;;;;;5071335;28;20387;-73
2024/02/03 07:23:00;;;;;;;18.50;12.20;;;10.20;98.10;;;;;;5071168;28;20376;-75
2024/02/03 07:25:25;;;;;;;19.00;12.30;;;10.30;96.60;;;;;;5071359;28;20371;-74
2024/02/03 07:27:51;;;;;;;17.23;12.20;;;10.20;96.90;;;;;;5071594;28;20522;-75
2024/02/03 07:30:16;;;;;;;15.63;11.10;;;10.20;96.60;;;;;;5071512;28;20885;-74
2024/02/03 07:32:42;;;;;;;15.90;11.27;;;10.30;96.20;;;;;;5071786;28;20391;-74
2024/02/03 07:35:08;;;;;;;17.90;11.43;;;10.30;96.00;;;;;;5071914;28;20379;-73
2024/02/03 07:37:35;;;;;;;17.40;11.77;;;10.30;96.30;;;;;;5071622;28;20383;-73
2024/02/03 07:40:01;;;;;;;17.10;11.32;;;10.30;96.10;;;;;;5071511;28;20510;-73
2024/02/03 07:42:26;;;;;;;18.40;11.70;;;10.40;96.00;;;;;;5071680;28;20917;-75
2024/02/03 07:44:52;;;;;;;16.10;11.63;;;10.40;95.80;;;;;;5075266;28;20407;-73
2024/02/03 07:47:17;;;;;;;17.73;11.80;;;10.40;96.20;;;;;;5071156;28;20433;-75
2024/02/03 07:49:43;;;;;;;17.48;11.48;;;10.40;97.10;;;;;;5071474;28;20391;-74
2024/02/03 07:52:08;;;;;;;20.55;11.63;;;10.30;97.60;;;;;;5070770;28;20383;-74
2024/02/03 07:54:34;;;;;;;19.23;11.67;;;10.40;97.50;;;;;;5070831;28;20419;-73
2024/02/03 07:57:00;;;;;;;16.67;12.10;;;10.40;98.60;;;;;;5070848;28;20398;-73
2024/02/03 07:59:27;;;;;;;18.80;11.37;;;10.40;96.80;;;;;;5070966;28;20392;-73
2024/02/03 08:01:53;;;;;;;17.30;11.17;;;10.40;97.80;;;;;;5070251;28;20496;-74
2024/02/03 08:04:20;;;;;;;17.73;11.48;;;10.40;97.70;;;;;;5069819;28;21498;-73
2024/02/03 08:06:46;;;;;;;16.00;11.30;;;10.40;98.40;;;;;;5052893;28;20433;-75
2024/02/03 08:09:11;;;;;;;17.77;11.70;;;10.30;99.10;;;;;;5070440;28;20658;-74
2024/02/03 08:11:37;;;;;;;15.48;11.00;;;10.30;99.00;;;;;;5069943;28;20379;-73
2024/02/03 08:14:02;;;;;;;19.95;12.10;;;10.30;99.00;;;;;;5070658;28;20506;-71
2024/02/03 08:16:28;;;;;;;17.83;11.57;;;10.30;99.20;;;;;;5070433;28;20394;-74
2024/02/03 08:18:53;;;;;;;15.67;11.30;;;10.40;99.00;;;;;;5070403;28;20402;-73
2024/02/03 08:21:19;;;;;;;18.60;11.60;;;10.40;97.90;;;;;;5070403;28;20487;-75
2024/02/03 08:23:44;;;;;;;17.17;11.63;;;10.40;97.80;;;;;;5070645;28;20432;-74
2024/02/03 08:26:12;;;;;;;17.10;11.30;;;10.50;97.50;;;;;;5070830;28;20468;-74
2024/02/03 08:28:37;;;;;;;20.05;12.18;;;10.50;97.90;;;;;;5070666;28;20376;-75
2024/02/03 08:31:03;;;;;;;18.40;11.97;;;10.50;97.80;;;;;;5070546;28;20884;-73
2024/02/03 08:33:31;;;;;;;16.97;11.80;;;10.50;98.40;;;;;;5070117;28;20411;-73
2024/02/03 08:35:56;;;;;;;17.85;12.20;;;10.50;99.80;;;;;;5070279;28;20390;-75
2024/02/03 08:38:22;;;;;;;19.53;11.70;;;10.50;99.90;;;;;;5070373;28;20466;-74
2024/02/03 08:40:48;;;;;;;15.90;10.70;;;10.50;99.90;;;;;;5071139;28;20372;-76
2024/02/03 08:43:13;;;;;;;18.27;11.60;;;10.50;99.90;;;;;;5070304;28;20414;-74
2024/02/03 08:45:39;;;;;;;16.20;10.60;;;10.50;99.90;;;;;;5070249;28;20442;-73
2024/02/03 08:48:05;;;;;;;14.57;10.30;;;10.40;99.90;;;;;;5070452;28;20380;-73
2024/02/03 08:50:30;;;;;;;18.88;11.25;;;10.40;99.90;;;;;;5070528;28;20385;-72
2024/02/03 08:52:56;;;;;;;17.10;10.80;;;10.40;99.90;;;;;;5069642;28;20979;-72
2024/02/03 08:55:22;;;;;;;18.27;10.83;;;10.50;99.90;;;;;;5070558;28;20380;-73
2024/02/03 08:57:48;;;;;;;16.60;11.30;;;10.50;99.90;;;;;;5070507;28;20384;-72
2024/02/03 09:00:14;;;;;;;16.97;10.70;;;10.50;99.90;;;;;;5069393;28;20874;-72
2024/02/03 09:02:39;;;;;;;15.23;11.50;;;10.50;99.90;;;;;;5051504;28;20443;-72
2024/02/03 09:05:05;;;;;;;18.85;10.30;;;10.50;99.90;;;;;;5069763;28;20379;-72
2024/02/03 09:07:34;;;;;;;15.07;9.95;;;10.60;99.90;;;;;;5069494;28;20420;-73
2024/02/03 09:10:01;;;;;;;17.33;9.60;;;10.60;99.90;;;;;;5069506;28;20755;-73
2024/02/03 09:12:27;;;;;;;15.07;9.15;;;10.60;99.90;;;;;;5069806;28;20387;-73
2024/02/03 09:14:52;;;;;;;15.70;9.53;;;10.60;99.90;;;;;;5069486;28;20398;-73
2024/02/03 09:17:18;;;;;;;15.70;9.73;;;10.60;99.90;;;;;;5071136;28;20750;-78
2024/02/03 09:19:43;;;;;;;13.60;9.60;;;10.60;99.90;;;;;;5071057;28;20384;-76
2024/02/03 09:22:10;;;;;;;13.27;9.80;;;10.60;99.90;;;;;;5069763;28;20410;-77
2024/02/03 09:24:35;;;;;;;14.30;9.70;;;10.60;99.90;;;;;;5070880;28;20871;-76
2024/02/03 09:27:02;;;;;;;11.20;7.80;;;10.60;99.90;;;;;;5072222;28;20403;-78
2024/02/03 09:29:27;;;;;;;14.02;8.15;;;10.70;99.90;;;;;;5072255;28;20379;-77
2024/02/03 09:31:53;;;;;;;13.25;8.45;;;10.60;99.90;;;;;;5071875;28;20379;-77
2024/02/03 09:34:19;;;;;;;11.20;8.43;;;10.60;99.90;;;;;;5071249;28;20395;-77
2024/02/03 09:36:44;;;;;;;12.10;8.17;;;10.70;99.90;;;;;;5071185;28;20903;-75
2024/02/03 09:39:10;;;;;;;13.37;7.80;;;10.70;99.90;;;;;;5072707;28;20383;-77
2024/02/03 09:41:35;;;;;;;10.80;7.70;;;10.70;99.90;;;;;;5072878;28;20414;-77
2024/02/03 09:44:03;;;;;;;12.25;7.60;;;10.70;99.90;;;;;;5073390;28;20383;-77
2024/02/03 09:46:28;;;;;;;12.68;7.60;;;10.80;99.80;;;;;;5073255;28;20754;-76
2024/02/03 09:48:54;;;;;;;13.45;8.50;;;10.80;99.90;;;;;;5073282;28;20388;-76
2024/02/03 09:51:20;;;;;;;10.48;7.70;;;10.80;99.80;;;;;;5074325;28;20750;-75
2024/02/03 09:53:46;;;;;;;13.43;7.80;;;10.80;99.30;;;;;;5073789;28;20383;-77
2024/02/03 09:56:12;;;;;;;14.95;8.05;;;10.80;99.90;;;;;;5075075;28;20699;-77
2024/02/03 09:58:38;;;;;;;11.77;8.20;;;10.80;99.90;;;;;;5074926;28;20383;-77
2024/02/03 10:01:03;;;;;;;12.75;7.95;;;10.90;99.90;;;;;;5075114;28;20418;-77
2024/02/03 10:03:29;;;;;;;11.60;7.60;;;10.90;98.60;;;;;;5076254;28;20380;-77
2024/02/03 10:06:03;;;;;;;13.33;8.33;;;10.90;98.60;;;;;;5056973;28;20874;-78
2024/02/03 10:08:29;;;;;;;13.50;8.70;;;10.90;99.40;;;;;;5075703;28;20863;-76
2024/02/03 10:10:56;;;;;;;10.70;7.77;;;11.00;98.60;;;;;;5075823;28;20405;-76
2024/02/03 10:13:23;;;;;;;13.57;7.80;;;11.00;98.10;;;;;;5073839;28;20421;-75
2024/02/03 10:16:02;;;;;;;10.73;7.53;;;11.00;98.00;;;;;;5057454;28;20392;-77
2024/02/03 10:18:30;;;;;;;11.65;7.90;;;11.10;96.50;;;;;;5074422;28;20440;-75
2024/02/03 10:20:58;;;;;;;12.70;7.28;;;11.10;97.00;;;;;;5074668;28;20403;-77
2024/02/03 10:23:24;;;;;;;12.02;7.35;;;11.20;95.90;;;;;;5082091;28;20465;-78
2024/02/03 10:25:59;;;;;;;10.82;7.68;;;11.20;96.90;;;;;;5075223;28;20831;-76
2024/02/03 10:28:25;;;;;;;9.20;7.03;;;11.30;97.10;;;;;;5078515;28;20376;-76
2024/02/03 10:30:52;;;;;;;11.80;7.50;;;11.30;96.40;;;;;;5081233;28;20433;-77
2024/02/03 10:33:18;;;;;;;10.73;8.00;;;11.30;95.80;;;;;;5078491;28;20470;-77
2024/02/03 10:35:45;;;;;;;12.50;8.00;;;11.40;94.90;;;;;;5084420;28;20750;-77
2024/02/03 10:38:14;;;;;;;10.13;7.90;;;11.40;94.30;;;;;;5086844;28;20400;-76
2024/02/03 10:40:40;;;;;;;9.30;7.53;;;11.50;93.60;;;;;;5082254;28;20380;-78
2024/02/03 10:43:16;;;;;;;10.65;7.57;;;11.50;93.00;;;;;;5088686;28;20438;-76
2024/02/03 10:45:45;;;;;;;11.98;7.80;;;11.50;91.50;;;;;;5063312;28;20392;-77
2024/02/03 10:48:17;;;;;;;9.07;7.63;;;11.50;90.80;;;;;;5074815;28;20461;-75
2024/02/03 10:50:45;;;;;;;14.73;8.38;;;11.50;90.00;;;;;;5073895;28;20380;-77
2024/02/03 10:53:21;;;;;;;14.00;7.68;;;11.50;90.70;;;;;;5075017;28;20462;-75
2024/02/03 10:55:54;;;;;;;13.15;8.60;;;11.50;90.50;;;;;;5075672;28;20797;-77
2024/02/03 10:58:23;;;;;;;13.97;9.23;;;11.50;90.60;;;;;;5075696;28;20900;-77
2024/02/03 11:00:52;;;;;;;12.33;9.00;;;11.50;90.10;;;;;;5074711;28;20408;-77
2024/02/03 11:03:20;;;;;;;13.38;9.40;;;11.60;89.70;;;;;;5075114;28;20395;-76
2024/02/03 11:05:46;;;;;;;15.20;9.45;;;11.60;88.90;;;;;;5076570;28;20387;-76
2024/02/03 11:08:12;;;;;;;15.18;9.30;;;11.60;89.00;;;;;;5078536;28;20398;-78
2024/02/03 11:10:38;;;;;;;17.85;9.20;;;11.60;87.70;;;;;;5075405;28;20443;-77
2024/02/03 11:13:23;;;;;;;14.32;10.18;;;11.60;87.50;;;;;;5071229;28;20395;-76
2024/02/03 11:15:56;;;;;;;15.57;9.10;;;11.60;88.30;;;;;;5077297;28;20420;-75
2024/02/03 11:18:21;;;;;;;13.35;9.38;;;11.60;88.70;;;;;;5076681;28;20392;-77
2024/02/03 11:20:47;;;;;;;17.87;9.73;;;11.60;89.20;;;;;;5076522;28;20387;-75
2024/02/03 11:23:13;;;;;;;12.10;9.20;;;11.60;89.50;;;;;;5077203;28;20724;-76
2024/02/03 11:25:47;;;;;;;15.18;9.25;;;11.60;90.00;;;;;;5078415;28;20385;-76
2024/02/03 11:28:13;;;;;;;17.15;9.55;;;11.60;89.10;;;;;;5077902;28;20395;-74
2024/02/03 11:30:39;;;;;;;14.73;9.63;;;11.50;90.10;;;;;;5074660;28;20494;-75
2024/02/03 11:33:08;;;;;;;14.30;9.77;;;11.50;91.30;;;;;;5074050;28;20384;-74
2024/02/03 11:35:35;;;;;;;16.48;10.10;;;11.50;90.90;;;;;;5074624;28;20445;-73
2024/02/03 11:38:07;;;;;;;13.20;10.00;;;11.50;91.60;;;;;;5075867;28;20387;-75
2024/02/03 11:40:44;;;;;;;14.15;9.60;;;11.50;90.90;;;;;;5081795;28;20399;-76
2024/02/03 11:43:13;;;;;;;15.17;9.97;;;11.50;91.30;;;;;;5073957;28;20390;-77
2024/02/03 11:45:48;;;;;;;15.60;9.80;;;11.40;90.90;;;;;;5092640;28;20401;-77
2024/02/03 11:48:14;;;;;;;14.48;9.80;;;11.40;90.20;;;;;;5092559;28;20388;-73
2024/02/03 11:50:41;;;;;;;14.50;9.75;;;11.40;91.20;;;;;;5089965;28;20371;-73
2024/02/03 11:53:06;;;;;;;14.25;10.18;;;11.40;91.00;;;;;;5087971;28;20437;-73
2024/02/03 11:55:33;;;;;;;15.85;9.73;;;11.40;91.60;;;;;;5070586;28;20778;-71
2024/02/03 11:57:59;;;;;;;15.55;9.50;;;11.50;91.30;;;;;;5092653;28;20383;-72
2024/02/03 12:00:25;;;;;;;15.18;9.70;;;11.50;92.00;;;;;;5089538;28;20399;-72
2024/02/03 12:02:51;;;;;;;14.60;8.97;;;11.50;92.50;;;;;;5089807;28;20494;-73
2024/02/03 12:05:16;;;;;;;15.60;9.70;;;11.50;90.40;;;;;;5085955;28;20406;-73
2024/02/03 12:07:42;;;;;;;14.20;9.20;;;11.50;91.20;;;;;;5088222;28;20387;-72
2024/02/03 12:10:09;;;;;;;13.70;9.60;;;11.60;90.40;;;;;;5087335;28;20394;-72
2024/02/03 12:12:35;;;;;;;15.85;8.98;;;11.60;90.90;;;;;;5086777;28;20456;-71
2024/02/03 12:15:01;;;;;;;14.17;8.83;;;11.60;90.90;;;;;;5085250;28;20388;-71
2024/02/03 12:17:27;;;;;;;12.00;9.30;;;11.60;91.10;;;;;;5085767;28;20395;-72
2024/02/03 12:19:54;;;;;;;14.57;9.35;;;11.60;91.00;;;;;;5086695;28;20497;-72
2024/02/03 12:22:20;;;;;;;16.13;9.35;;;11.70;91.50;;;;;;5082797;28;20407;-70
2024/02/03 12:24:46;;;;;;;13.40;8.77;;;11.70;92.10;;;;;;5085735;28;20467;-72
2024/02/03 12:27:12;;;;;;;14.20;9.20;;;11.70;92.00;;;;;;5080873;28;20399;-72